Terminal Aerodrome Forecast
Issued by NWS Buffalo, NY

Home | Current Version | Previous Version | Text Only | Print | Product List | Glossary On
Versions: 1 2 3 4 5 6 7 8 9 10 11 12 13 14 15 16 17 18 19 20 21 22 23 24 25 26 27 28 29
000
FTUS41 KBUF 202300 RRA
TAFROC
TAF
KROC 202347Z 2100/2124 21009KT P6SM FEW250
     FM210300 19012G20KT P6SM FEW200
     FM210700 19014G22KT P6SM BKN045
     FM211000 20012G20KT P6SM VCSH OVC025
     FM211200 20011G18KT 6SM -SHRA OVC025
     FM211500 24010G16KT 6SM -SHRA OVC025
     FM211700 28009KT 6SM -SHRA OVC025=

USA.gov is the U.S. government's official web portal to all federal, state and local government web resources and services.